createdAt,value
2019-01-15T00:01:01.065Z,70.98
2019-01-15T00:02:12.297Z,68.24
2019-01-15T00:03:22.224Z,70.61
2019-01-15T00:04:32.139Z,69.85
2019-01-15T00:05:41.813Z,70.51
2019-01-15T00:06:51.736Z,71.93
2019-01-15T00:08:01.405Z,72.22
2019-01-15T00:09:10.570Z,71.46
2019-01-15T00:10:20.232Z,69.57
2019-01-15T00:11:30.155Z,70.42
2019-01-15T00:12:39.830Z,72.69
2019-01-15T00:13:49.249Z,71.46
2019-01-15T00:14:58.917Z,73.26
2019-01-15T00:16:08.596Z,72.69
2019-01-15T00:17:18.014Z,73.26
2019-01-15T00:18:27.433Z,72.31
2019-01-15T00:19:37.101Z,70.89
2019-01-15T00:20:46.776Z,73.64
2019-01-15T00:21:55.950Z,74.15
2019-01-15T00:23:05.874Z,73.64
2019-01-15T00:24:15.541Z,74.15
2019-01-15T00:25:24.964Z,72.22
2019-01-15T00:26:34.635Z,72.31
2019-01-15T00:27:44.057Z,72.78
2019-01-15T00:28:53.928Z,73.73
2019-01-15T00:30:03.360Z,73.73
2019-01-15T00:31:13.273Z,72.97
2019-01-15T00:32:22.696Z,71.36
2019-01-15T00:33:32.630Z,70.7
2019-01-15T00:34:42.298Z,67.68
2019-01-15T00:35:51.716Z,72.06
2019-01-15T00:37:01.386Z,72.31
2019-01-15T00:38:10.803Z,72.6
2019-01-15T00:39:20.475Z,69.47
2019-01-15T00:40:30.153Z,71.4
2019-01-15T00:41:39.821Z,71.5
2019-01-15T00:42:49.740Z,71.4
2019-01-15T00:43:59.170Z,73.2
2019-01-15T00:45:09.098Z,72.44
2019-01-15T00:46:18.526Z,72.53
2019-01-15T00:47:28.219Z,70.36
2019-01-15T00:48:37.402Z,71.59
2019-01-15T00:49:47.315Z,72.25
2019-01-15T00:50:56.738Z,72.34
2019-01-15T00:52:06.156Z,73.3
2019-01-15T00:53:15.832Z,72.25
2019-01-15T00:54:25.761Z,73.3
2019-01-15T00:55:35.683Z,73.11
2019-01-15T00:56:45.162Z,73.2
2019-01-15T00:57:54.854Z,74.33
2019-01-15T00:59:03.816Z,73.58
2019-01-15T01:00:13.738Z,73.11
2019-01-15T01:01:23.149Z,75
2019-01-15T01:02:33.067Z,73.58
2019-01-15T01:03:42.986Z,72.53
2019-01-15T01:04:52.651Z,75.28
2019-01-15T01:06:02.068Z,74.9
2019-01-15T01:07:11.542Z,74.24
2019-01-15T01:08:21.219Z,74.33
2019-01-15T01:09:30.887Z,73.96
2019-01-15T01:10:40.802Z,72.92
2019-01-15T01:11:50.465Z,73.86
2019-01-15T01:13:00.135Z,74.62
2019-01-15T01:14:09.810Z,74.05
2019-01-15T01:15:19.494Z,71.4
2019-01-15T01:16:28.923Z,70.36
2019-01-15T01:17:38.852Z,73.2
2019-01-15T01:18:48.781Z,74.24
2019-01-15T01:19:57.947Z,73.49
2019-01-15T01:21:07.464Z,74.81
2019-01-15T01:22:17.381Z,74.71
2019-01-15T01:23:33.569Z,67.52
2019-01-15T01:24:43.029Z,74.43
2019-01-15T01:25:52.952Z,74.62
2019-01-15T01:27:02.128Z,73.49
2019-01-15T01:28:11.806Z,73.49
2019-01-15T01:29:21.520Z,70.55
2019-01-15T01:30:30.935Z,72.25
2019-01-15T01:31:40.854Z,74.15
2019-01-15T01:32:50.778Z,73.68
2019-01-15T01:34:00.194Z,72.06
2019-01-15T01:35:10.120Z,73.68
2019-01-15T01:36:19.791Z,72.73
2019-01-15T01:37:29.214Z,74.43
2019-01-15T01:38:38.887Z,73.39
2019-01-15T01:39:47.805Z,73.68
2019-01-15T01:40:57.225Z,71.69
2019-01-15T01:42:07.211Z,73.49
2019-01-15T01:43:16.893Z,73.11
2019-01-15T01:44:26.312Z,72.44
2019-01-15T01:45:35.734Z,70.55
2019-01-15T01:46:45.160Z,73.2
2019-01-15T01:47:55.090Z,74.62
2019-01-15T01:49:04.760Z,72.34
2019-01-15T01:50:14.679Z,71.59
2019-01-15T01:51:24.598Z,73.3
2019-01-15T01:52:34.025Z,74.15
2019-01-15T01:53:43.207Z,74.33
2019-01-15T01:54:53.157Z,73.3
2019-01-15T01:56:03.086Z,74.81
2019-01-15T01:57:13.019Z,74.05
2019-01-15T01:58:22.439Z,75.28
2019-01-15T01:59:32.121Z,74.9
2019-01-15T02:00:41.795Z,74.62
2019-01-15T02:01:51.220Z,73.49
2019-01-15T02:03:00.666Z,73.2
2019-01-15T02:04:10.083Z,74.15
2019-01-15T02:05:19.504Z,70.55
2019-01-15T02:06:29.190Z,74.62
2019-01-15T02:07:38.862Z,74.9
2019-01-15T02:08:48.545Z,76.51
2019-01-15T02:09:58.470Z,76.8
2019-01-15T02:11:07.898Z,75.95
2019-01-15T02:12:17.579Z,76.23
2019-01-15T02:13:27.246Z,76.51
2019-01-15T02:14:36.918Z,75.09
2019-01-15T02:15:46.340Z,74.81
2019-01-15T02:16:56.011Z,76.7
2019-01-15T02:18:05.700Z,75
2019-01-15T02:19:15.377Z,75.57
2019-01-15T02:20:25.301Z,76.32
2019-01-15T02:21:34.722Z,77.08
2019-01-15T02:22:44.142Z,76.7
2019-01-15T02:23:54.062Z,76.8
2019-01-15T02:25:03.486Z,77.46
2019-01-15T02:26:13.400Z,78.41
2019-01-15T02:27:23.076Z,78.79
2019-01-15T02:28:32.553Z,78.13
2019-01-15T02:29:42.227Z,76.7
2019-01-15T02:30:51.407Z,77.46
2019-01-15T02:32:00.823Z,78.03
2019-01-15T02:33:10.499Z,75.76
2019-01-15T02:34:19.923Z,77.46
2019-01-15T02:35:29.597Z,77.56
2019-01-15T02:36:39.295Z,77.46
2019-01-15T02:37:48.970Z,75.38
2019-01-15T02:38:58.895Z,77.27
2019-01-15T02:40:08.826Z,77.94
2019-01-15T02:41:18.512Z,75.95
2019-01-15T02:42:27.937Z,77.46
2019-01-15T02:45:54.007Z,76.8
2019-01-15T02:47:03.440Z,77.18
2019-01-15T02:48:12.617Z,76.99
2019-01-15T02:49:22.551Z,74.15
2019-01-15T02:50:32.005Z,78.03
2019-01-15T02:51:41.690Z,77.08
2019-01-15T02:52:51.110Z,76.42
2019-01-15T02:54:01.334Z,75.76
2019-01-15T02:55:11.265Z,76.61
2019-01-15T02:56:21.193Z,76.32
2019-01-15T02:57:30.875Z,75.76
2019-01-15T02:58:40.809Z,74.71
2019-01-15T02:59:50.730Z,76.04
2019-01-15T03:01:00.151Z,76.7
2019-01-15T03:02:09.703Z,76.7
2019-01-15T03:03:19.133Z,76.7
2019-01-15T03:04:29.066Z,76.7
2019-01-15T03:05:38.745Z,75.76
2019-01-15T03:06:48.421Z,75.85
2019-01-15T03:07:58.104Z,76.14
2019-01-15T03:09:08.029Z,76.32
2019-01-15T03:10:17.715Z,76.74
2019-01-15T03:11:27.635Z,76.7
2019-01-15T03:12:37.051Z,74.95
2019-01-15T03:13:46.731Z,74.9
2019-01-15T03:14:56.194Z,74.43
2019-01-15T03:16:05.865Z,75.47
2019-01-15T03:17:15.057Z,73.58
2019-01-15T03:18:24.988Z,75.28
2019-01-15T03:19:34.670Z,74.71
2019-01-15T03:20:44.361Z,74.81
2019-01-15T03:21:53.787Z,74.52
2019-01-15T03:23:03.466Z,74.81
2019-01-15T03:24:13.142Z,73.11
2019-01-15T03:25:22.565Z,74.9
2019-01-15T03:26:32.258Z,74.43
2019-01-15T03:27:41.938Z,74.62
2019-01-15T03:28:51.634Z,74.71
2019-01-15T03:30:01.307Z,73.49
2019-01-15T03:31:11.000Z,73.86
2019-01-15T03:32:20.707Z,73.86
2019-01-15T03:33:30.409Z,73.86
2019-01-15T03:34:39.837Z,73.2
2019-01-15T03:35:49.540Z,73.39
2019-01-15T03:36:59.211Z,74.15
2019-01-15T03:38:08.633Z,72.34
2019-01-15T03:39:18.318Z,71.78
2019-01-15T03:40:28.264Z,71.78
2019-01-15T03:41:37.949Z,73.2
2019-01-15T03:42:47.643Z,72.44
2019-01-15T03:43:56.811Z,73.01
2019-01-15T03:45:07.611Z,72.25
2019-01-15T03:46:17.300Z,72.53
2019-01-15T03:47:26.981Z,72.53
2019-01-15T03:48:36.415Z,73.86
2019-01-15T03:49:46.343Z,74.24
2019-01-15T03:50:56.274Z,70.74
2019-01-15T03:52:05.964Z,73.49
2019-01-15T03:53:15.650Z,72.25
2019-01-15T03:54:25.321Z,72.53
2019-01-15T03:55:35.249Z,72.63
2019-01-15T03:56:44.927Z,73.49
2019-01-15T03:57:54.871Z,73.39
2019-01-15T03:59:04.792Z,73.68
2019-01-15T04:00:14.476Z,74.33
2019-01-15T04:01:24.156Z,74.15
2019-01-15T04:02:33.337Z,74.33
2019-01-15T04:03:43.015Z,73.49
2019-01-15T04:04:52.458Z,73.68
2019-01-15T04:06:02.130Z,73.11
2019-01-15T04:07:11.562Z,73.2
2019-01-15T04:08:20.739Z,73.96
2019-01-15T04:09:30.171Z,73.86
2019-01-15T04:10:39.844Z,73.86
2019-01-15T04:11:49.282Z,71.21
2019-01-15T04:12:58.984Z,72.73
2019-01-15T04:14:16.128Z,73.39
2019-01-15T04:15:25.802Z,72.92
2019-01-15T04:16:35.236Z,73.68
2019-01-15T04:17:44.690Z,73.68
2019-01-15T04:18:54.627Z,73.58
2019-01-15T04:20:04.076Z,74.9
2019-01-15T04:21:14.023Z,73.58
2019-01-15T04:22:23.704Z,73.2
2019-01-15T04:23:33.398Z,72.06
2019-01-15T04:24:43.074Z,74.62
2019-01-15T04:25:52.749Z,75.09
2019-01-15T04:27:02.426Z,74.81
2019-01-15T04:28:12.107Z,74.71
2019-01-15T04:29:21.545Z,74.05
2019-01-15T04:30:31.222Z,74.24
2019-01-15T04:31:41.154Z,74.24
2019-01-15T04:32:50.325Z,73.11
2019-01-15T04:33:59.756Z,74.33
2019-01-15T04:35:09.472Z,75
2019-01-15T04:36:19.431Z,74.47
2019-01-15T04:37:29.108Z,74.43
2019-01-15T04:38:38.528Z,74.37
2019-01-15T04:39:47.958Z,74.43
2019-01-15T04:40:57.643Z,75.23
2019-01-15T04:42:06.818Z,75.42
2019-01-15T04:43:22.261Z,72.77
2019-01-15T04:44:31.701Z,75.7
2019-01-15T04:45:41.378Z,76.27
2019-01-15T04:46:51.049Z,75.79
2019-01-15T04:48:00.750Z,75.6
2019-01-15T04:49:10.689Z,76.17
2019-01-15T04:50:20.649Z,76.84
2019-01-15T04:51:30.323Z,75.32
2019-01-15T04:52:40.256Z,76.46
2019-01-15T04:53:50.236Z,74.85
2019-01-15T04:55:00.171Z,77.59
2019-01-15T04:56:09.854Z,75.7
2019-01-15T04:57:19.284Z,78.45
2019-01-15T04:58:29.214Z,78.45
2019-01-15T04:59:38.897Z,79.3
2019-01-15T05:00:48.570Z,78.07
2019-01-15T05:01:58.255Z,78.35
2019-01-15T05:03:08.184Z,78.16
2019-01-15T05:04:17.872Z,79.68
2019-01-15T05:05:27.566Z,78.45
2019-01-15T05:06:37.006Z,80.25
2019-01-15T05:07:46.690Z,80.25
2019-01-15T05:08:56.125Z,79.58
2019-01-15T05:10:06.047Z,80.72
2019-01-15T05:11:15.974Z,80.53
2019-01-15T05:12:25.649Z,80.44
2019-01-15T05:13:35.327Z,79.77
2019-01-15T05:14:45.253Z,81.2
2019-01-15T05:15:55.190Z,78.16
2019-01-15T05:17:05.135Z,82.05
2019-01-15T05:18:14.828Z,82.43
2019-01-15T05:19:24.604Z,82.9
2019-01-15T05:20:34.295Z,81.95
2019-01-15T05:21:43.982Z,82.52
2019-01-15T05:22:53.665Z,82.71
2019-01-15T05:24:03.352Z,82.62
2019-01-15T05:25:13.283Z,83.09
2019-01-15T05:26:22.776Z,82.52
2019-01-15T05:27:33.298Z,82.52
2019-01-15T05:28:43.237Z,82.71
2019-01-15T05:29:53.171Z,82.14
2019-01-15T05:31:03.037Z,81.1
2019-01-15T05:32:12.234Z,80.63
2019-01-15T05:33:22.184Z,80.25
2019-01-15T05:34:31.875Z,80.91
2019-01-15T05:35:41.573Z,80.06
2019-01-15T05:36:51.251Z,79.3
2019-01-15T05:38:00.429Z,79.11
2019-01-15T05:39:10.377Z,79.02
2019-01-15T05:40:20.055Z,78.45
2019-01-15T05:41:29.521Z,78.07
2019-01-15T05:42:39.452Z,78.26
2019-01-15T05:43:49.132Z,77.59
2019-01-15T05:44:58.815Z,77.22
2019-01-15T05:46:08.750Z,77.97
2019-01-15T05:47:18.700Z,78.16
2019-01-15T05:48:28.631Z,77.59
2019-01-15T05:49:38.304Z,77.69
2019-01-15T05:50:47.672Z,77.59
2019-01-15T05:51:57.100Z,77.31
2019-01-15T05:53:07.054Z,76.84
2019-01-15T05:54:16.749Z,75.42
2019-01-15T05:55:26.686Z,74.18
2019-01-15T05:56:36.621Z,74.95
2019-01-15T05:57:46.558Z,72
2019-01-15T05:58:55.729Z,72.1
2019-01-15T06:00:05.402Z,72.1
2019-01-15T06:01:15.334Z,71.34
2019-01-15T06:02:24.754Z,69.07
2019-01-15T06:03:34.430Z,70.58
2019-01-15T06:04:43.849Z,70.87
2019-01-15T06:05:53.288Z,71.06
2019-01-15T06:07:03.208Z,71.62
2019-01-15T06:08:13.141Z,71.72
2019-01-15T06:09:22.572Z,70.97
2019-01-15T06:10:31.752Z,71.62
2019-01-15T06:11:41.430Z,70.87
2019-01-15T06:12:50.864Z,71.62
2019-01-15T06:14:00.785Z,71.72
2019-01-15T06:15:09.956Z,71.44
2019-01-15T06:16:19.384Z,71.25
2019-01-15T06:17:29.317Z,70.49
2019-01-15T06:18:39.006Z,70.97
2019-01-15T06:19:48.938Z,71.06
2019-01-15T06:20:58.359Z,70.58
2019-01-15T06:22:08.073Z,71.91
2019-01-15T06:23:17.499Z,71.34
2019-01-15T06:24:27.166Z,71.34
2019-01-15T06:25:36.615Z,71.53
2019-01-15T06:26:46.310Z,70.68
2019-01-15T06:27:55.740Z,71.34
2019-01-15T06:29:05.322Z,71.25
2019-01-15T06:30:15.000Z,70.58
2019-01-15T06:31:24.425Z,70.49
2019-01-15T06:32:34.352Z,70.68
2019-01-15T06:33:44.040Z,70.49
2019-01-15T06:34:53.732Z,70.49
2019-01-15T06:36:03.669Z,70.49
2019-01-15T06:37:13.601Z,70.49
2019-01-15T06:38:23.288Z,69.64
2019-01-15T06:39:33.227Z,69.92
2019-01-15T06:40:42.662Z,70.49
2019-01-15T06:41:52.336Z,70.01
2019-01-15T06:43:03.797Z,70.11
2019-01-15T06:44:13.566Z,70.11
2019-01-15T06:45:22.997Z,69.54
2019-01-15T06:46:32.428Z,69.26
2019-01-15T06:47:42.351Z,68.69
2019-01-15T06:48:51.775Z,69.38
2019-01-15T06:50:01.712Z,68.25
2019-01-15T06:51:11.396Z,67.87
2019-01-15T06:52:20.825Z,67.77
2019-01-15T06:53:30.247Z,68.15
2019-01-15T06:54:39.672Z,67.68
2019-01-15T06:55:49.106Z,67.49
2019-01-15T06:56:58.534Z,67.21
2019-01-15T06:58:08.242Z,67.58
2019-01-15T06:59:17.679Z,65.5
2019-01-15T07:00:27.370Z,65.78
2019-01-15T07:01:36.801Z,66.54
2019-01-15T07:02:46.474Z,66.26
2019-01-15T07:03:56.151Z,64.93
2019-01-15T07:05:05.824Z,66.07
2019-01-15T07:06:17.105Z,66.16
2019-01-15T07:07:27.033Z,66.54
2019-01-15T07:08:36.453Z,66.16
2019-01-15T07:09:46.134Z,66.16
2019-01-15T07:10:55.562Z,66.16
2019-01-15T07:12:05.490Z,66.26
2019-01-15T07:13:15.404Z,66.16
2019-01-15T07:14:24.832Z,65.97
2019-01-15T07:15:34.020Z,65.97
2019-01-15T07:16:43.953Z,65.69
2019-01-15T07:17:53.675Z,65.69
2019-01-15T07:19:03.107Z,66.16
2019-01-15T07:20:12.533Z,66.07
2019-01-15T07:21:21.974Z,66.45
2019-01-15T07:22:31.199Z,64.84
2019-01-15T07:23:40.872Z,64.93
2019-01-15T07:24:50.803Z,64.27
2019-01-15T07:26:00.235Z,64.74
2019-01-15T07:27:09.663Z,64.36
2019-01-15T07:28:19.337Z,64.36
2019-01-15T07:29:28.765Z,61.9
2019-01-15T07:30:38.194Z,62.66
2019-01-15T07:31:47.880Z,61.99
2019-01-15T07:32:57.890Z,61.33
2019-01-15T07:34:07.820Z,59.05
2019-01-15T07:35:17.496Z,55.55
2019-01-15T07:36:27.167Z,53.94
2019-01-15T07:37:37.093Z,52.04
2019-01-15T07:38:46.773Z,49.57
2019-01-15T07:39:56.448Z,47.68
2019-01-15T07:41:05.628Z,46.16
2019-01-15T07:42:15.554Z,44.74
2019-01-15T07:43:25.235Z,43.79
2019-01-15T07:44:34.660Z,42.56
2019-01-15T07:45:44.589Z,41.8
2019-01-15T07:46:54.262Z,41.61
2019-01-15T07:48:03.687Z,40.57
2019-01-15T07:49:13.614Z,40
2019-01-15T07:50:23.291Z,39.62
2019-01-15T07:51:32.966Z,38.67
2019-01-15T07:52:42.646Z,37.25
2019-01-15T07:53:51.829Z,36.78
2019-01-15T07:55:01.258Z,35.93
2019-01-15T07:56:12.239Z,34.59
2019-01-15T07:57:21.923Z,34.59
2019-01-15T07:58:31.347Z,33.37
2019-01-15T07:59:41.024Z,32.32
2019-01-15T08:00:50.704Z,31.66
2019-01-15T08:01:59.385Z,30.33
2019-01-15T08:03:09.064Z,28.91
2019-01-15T08:04:18.495Z,27.49
2019-01-15T08:05:28.422Z,27.01
2019-01-15T08:06:38.092Z,26.16
2019-01-15T08:07:48.022Z,25.21
2019-01-15T08:08:57.703Z,25.12
2019-01-15T08:10:07.624Z,24.27
2019-01-15T08:11:17.304Z,23.6
2019-01-15T08:12:26.980Z,22.65
2019-01-15T08:13:36.653Z,21.51
2019-01-15T08:14:46.092Z,21.42
2019-01-15T08:15:56.471Z,20.86
2019-01-15T08:17:06.517Z,20.77
2019-01-15T08:18:16.447Z,20.19
2019-01-15T08:19:26.382Z,20.1
2019-01-15T08:20:36.070Z,20.39
2019-01-15T08:21:45.771Z,20.2
2019-01-15T08:22:55.710Z,19.44
2019-01-15T08:24:05.393Z,19.15
2019-01-15T08:25:14.854Z,18.68
2019-01-15T08:26:24.285Z,18.3
2019-01-15T08:27:33.967Z,18.4
2019-01-15T08:28:43.653Z,18.21
2019-01-15T08:29:53.338Z,18.3
2019-01-15T08:31:03.028Z,17.73
2019-01-15T08:32:11.960Z,17.26
2019-01-15T08:33:21.893Z,16.5
2019-01-15T08:34:31.831Z,16.22
2019-01-15T08:35:41.760Z,15.45
2019-01-15T08:36:51.684Z,15.17
2019-01-15T08:38:01.110Z,14.51
2019-01-15T08:39:10.536Z,14.7
2019-01-15T08:40:20.266Z,14.61
2019-01-15T08:41:29.943Z,13.84
2019-01-15T08:42:39.865Z,13.46
2019-01-15T08:43:49.313Z,12.8
2019-01-15T08:44:59.289Z,12.71
2019-01-15T08:46:08.977Z,12.33
2019-01-15T08:47:18.897Z,11.57
2019-01-15T08:48:28.830Z,10.81
2019-01-15T08:49:38.507Z,10.43
2019-01-15T08:50:48.442Z,9.48
2019-01-15T08:51:57.874Z,9.2
2019-01-15T08:53:07.553Z,9.01
2019-01-15T08:54:17.229Z,9.2
2019-01-15T08:55:26.909Z,9.2
2019-01-15T08:56:36.837Z,9.48
2019-01-15T08:57:46.768Z,9.39
2019-01-15T08:58:55.949Z,9.86
2019-01-15T09:00:05.639Z,10.33
2019-01-15T09:01:15.569Z,10.24
2019-01-15T09:02:25.250Z,10.52
2019-01-15T09:03:34.932Z,11.1
2019-01-15T09:04:44.610Z,11.66
2019-01-15T09:05:54.284Z,11.94
2019-01-15T09:07:04.223Z,12.14
2019-01-15T09:08:13.680Z,12.42
2019-01-15T09:09:22.986Z,11.76
2019-01-15T09:10:32.662Z,11.29
2019-01-15T09:11:42.584Z,11.66
2019-01-15T09:12:51.766Z,11.76
2019-01-15T09:14:01.213Z,11.85
2019-01-15T09:15:11.186Z,11.94
2019-01-15T09:16:20.750Z,12.52
2019-01-15T09:17:30.171Z,12.61
2019-01-15T09:18:39.405Z,12.61
2019-01-15T09:19:49.270Z,12.9
2019-01-15T09:20:58.451Z,12.9
2019-01-15T09:22:07.630Z,12.99
2019-01-15T09:23:17.353Z,13.28
2019-01-15T09:24:27.149Z,12.71
2019-01-15T09:25:36.073Z,13.46
2019-01-15T09:26:45.755Z,14.51
2019-01-15T09:27:55.432Z,14.98
2019-01-15T09:29:05.380Z,14.51
2019-01-15T09:30:15.244Z,14.98
2019-01-15T09:31:25.178Z,14.51
2019-01-15T09:32:34.618Z,14.7
2019-01-15T09:33:44.560Z,15.18
2019-01-15T09:34:54.243Z,15.66
2019-01-15T09:36:03.434Z,15.75
2019-01-15T09:37:13.356Z,16.13
2019-01-15T09:38:23.282Z,16.13
2019-01-15T09:39:33.205Z,15.84
2019-01-15T09:40:43.128Z,15.37
2019-01-15T09:41:52.555Z,14.99
2019-01-15T09:43:02.487Z,15.08
2019-01-15T09:44:11.968Z,14.51
2019-01-15T09:45:21.394Z,14.04
2019-01-15T09:46:30.816Z,13.38
2019-01-15T09:47:40.761Z,12.71
2019-01-15T09:48:50.685Z,12.24
2019-01-15T09:50:00.608Z,12.15
2019-01-15T09:51:10.288Z,11.29
2019-01-15T09:52:24.151Z,11.48
2019-01-15T09:53:33.397Z,11.1
2019-01-15T09:54:43.332Z,11.1
2019-01-15T09:55:53.018Z,10.82
2019-01-15T09:57:02.440Z,10.53
2019-01-15T09:58:12.372Z,11
2019-01-15T09:59:22.295Z,10.63
2019-01-15T10:00:32.231Z,10.15
2019-01-15T10:01:41.661Z,9.96
2019-01-15T10:02:51.594Z,9.39
2019-01-15T10:04:01.020Z,8.92
2019-01-15T10:05:10.700Z,8.63
2019-01-15T10:06:20.388Z,8.35
2019-01-15T10:07:29.814Z,8.35
2019-01-15T10:08:39.744Z,8.44
2019-01-15T10:09:49.420Z,8.16
2019-01-15T10:10:59.106Z,7.78
2019-01-15T10:12:08.787Z,8.16
2019-01-15T10:13:18.709Z,7.87
2019-01-15T10:14:28.635Z,7.59
2019-01-15T10:15:43.906Z,7.68
2019-01-15T10:16:53.337Z,8.06
2019-01-15T10:18:03.287Z,8.06
2019-01-15T10:19:12.968Z,7.68
2019-01-15T10:20:22.401Z,7.97
2019-01-15T10:21:31.828Z,8.06
2019-01-15T10:22:42.725Z,8.06
2019-01-15T10:23:52.648Z,7.12
2019-01-15T10:25:02.324Z,7.68
2019-01-15T10:26:12.001Z,7.68
2019-01-15T10:27:21.920Z,6.83
2019-01-15T10:28:31.847Z,7.02
2019-01-15T10:29:41.274Z,6.64
2019-01-15T10:30:50.949Z,6.45
2019-01-15T10:32:00.874Z,6.26
2019-01-15T10:33:10.551Z,5.98
2019-01-15T10:34:20.226Z,5.98
2019-01-15T10:35:30.209Z,5.69
2019-01-15T10:36:39.753Z,5.6
2019-01-15T10:37:49.692Z,5.5
2019-01-15T10:38:59.121Z,5.22
2019-01-15T10:40:09.048Z,5.22
2019-01-15T10:41:18.473Z,5.41
2019-01-15T10:42:28.400Z,5.41
2019-01-15T10:43:37.826Z,5.88
2019-01-15T10:44:51.295Z,5.22
2019-01-15T10:46:00.472Z,4.83
2019-01-15T10:47:10.410Z,4.27
2019-01-15T10:48:19.834Z,4.46
2019-01-15T10:49:29.518Z,4.55
2019-01-15T10:50:39.199Z,4.27
2019-01-15T10:51:48.624Z,3.98
2019-01-15T10:52:58.300Z,3.99
2019-01-15T10:54:07.976Z,3.89
2019-01-15T10:55:17.659Z,4.08
2019-01-15T10:56:27.352Z,4.08
2019-01-15T10:57:36.776Z,3.98
2019-01-15T10:58:46.703Z,3.51
2019-01-15T10:59:56.126Z,2.94
2019-01-15T11:01:05.806Z,3.13
2019-01-15T11:02:15.748Z,3.41
2019-01-15T11:03:25.679Z,3.89
2019-01-15T11:04:35.110Z,4.08
2019-01-15T11:05:44.781Z,4.17
2019-01-15T11:06:54.462Z,4.46
2019-01-15T11:08:03.902Z,4.08
2019-01-15T11:09:13.129Z,4.17
2019-01-15T11:10:22.804Z,3.89
2019-01-15T11:11:32.731Z,4.36
2019-01-15T11:12:42.402Z,4.17
2019-01-15T11:13:52.331Z,3.89
2019-01-15T11:15:01.765Z,4.08
2019-01-15T11:16:11.771Z,4.27
2019-01-15T11:17:21.446Z,3.89
2019-01-15T11:18:31.128Z,3.98
2019-01-15T11:19:42.165Z,3.51
2019-01-15T11:20:51.843Z,3.13
2019-01-15T11:22:01.034Z,3.13
2019-01-15T11:23:10.960Z,2.56
2019-01-15T11:24:20.702Z,2.37
2019-01-15T11:25:30.627Z,2.28
2019-01-15T11:26:40.572Z,1.9
2019-01-15T11:27:50.497Z,1.61
2019-01-15T11:29:00.174Z,1.7
2019-01-15T11:30:09.856Z,1.9
2019-01-15T11:31:19.538Z,2.09
2019-01-15T11:32:29.465Z,1.99
2019-01-15T11:33:38.394Z,2.09
2019-01-15T11:34:48.066Z,2.47
2019-01-15T11:35:57.739Z,2.37
2019-01-15T11:37:07.415Z,2.37
2019-01-15T11:38:17.096Z,2.66
2019-01-15T11:39:27.020Z,2.47
2019-01-15T11:40:36.450Z,2.18
2019-01-15T11:41:46.118Z,2.37
2019-01-15T11:42:56.043Z,2.56
2019-01-15T11:44:05.723Z,3.03
2019-01-15T11:45:15.403Z,3.7
2019-01-15T11:46:25.083Z,3.51
2019-01-15T11:47:34.513Z,3.7
2019-01-15T11:48:43.946Z,3.8
2019-01-15T11:49:53.879Z,3.51
2019-01-15T11:51:03.602Z,3.61
2019-01-15T11:52:13.032Z,3.89
2019-01-15T11:53:22.728Z,4.08
2019-01-15T11:54:32.659Z,4.27
2019-01-15T11:55:42.648Z,4.55
2019-01-15T11:56:52.332Z,4.84
2019-01-15T11:58:02.255Z,5.51
2019-01-15T11:59:12.185Z,5.79
2019-01-15T12:00:21.872Z,5.51
2019-01-15T12:01:31.554Z,5.88
2019-01-15T12:02:41.249Z,6.17
2019-01-15T12:03:51.171Z,6.83
2019-01-15T12:05:00.612Z,6.83
2019-01-15T12:06:10.041Z,7.12
2019-01-15T12:07:19.258Z,8.45
2019-01-15T12:08:29.185Z,8.45
2019-01-15T12:09:38.620Z,8.26
2019-01-15T12:10:48.553Z,8.26
2019-01-15T12:11:58.259Z,8.16
2019-01-15T12:13:07.931Z,8.45
2019-01-15T12:14:17.611Z,8.26
2019-01-15T12:15:27.291Z,7.59
2019-01-15T12:16:36.769Z,6.55
2019-01-15T12:17:46.694Z,5.98
2019-01-15T12:18:56.123Z,6.26
2019-01-15T12:20:05.797Z,5.51
2019-01-15T12:21:15.478Z,5.51
2019-01-15T12:22:24.903Z,5.12
2019-01-15T12:23:34.358Z,4.46
2019-01-15T12:24:43.782Z,3.89
2019-01-15T12:25:52.960Z,3.7
2019-01-15T12:27:02.880Z,3.51
2019-01-15T12:28:12.315Z,3.89
2019-01-15T12:29:22.319Z,3.89
2019-01-15T12:30:32.013Z,3.61
2019-01-15T12:31:41.718Z,3.7
2019-01-15T12:32:50.892Z,3.41
2019-01-15T12:34:00.573Z,3.03
2019-01-15T12:35:10.517Z,3.32
2019-01-15T12:36:20.194Z,3.8
2019-01-15T12:37:29.850Z,3.89
2019-01-15T12:38:39.800Z,4.74
2019-01-15T12:39:49.232Z,4.93
2019-01-15T12:40:58.906Z,5.32
2019-01-15T12:42:08.844Z,4.93
2019-01-15T12:43:18.023Z,5.12
2019-01-15T12:44:27.982Z,4.65
2019-01-15T12:45:37.911Z,4.84
2019-01-15T12:46:47.346Z,4.27
2019-01-15T12:47:57.016Z,5.12
2019-01-15T12:49:06.698Z,5.79
2019-01-15T12:50:16.647Z,5.88
2019-01-15T12:51:25.827Z,6.17
2019-01-15T12:52:35.508Z,6.64
2019-01-15T12:53:45.188Z,7.97
2019-01-15T12:54:54.862Z,7.69
2019-01-15T12:56:04.791Z,9.21
2019-01-15T12:57:21.697Z,9.78
2019-01-15T12:58:31.126Z,10.35
2019-01-15T12:59:41.056Z,10.25
2019-01-15T13:00:50.735Z,9.11
2019-01-15T13:02:00.411Z,9.59
2019-01-15T13:03:10.337Z,8.54
2019-01-15T13:04:19.772Z,8.92
2019-01-15T13:05:29.203Z,8.64
2019-01-15T13:06:39.137Z,8.26
2019-01-15T13:07:49.073Z,9.02
2019-01-15T13:08:58.753Z,8.73
2019-01-15T13:10:08.185Z,8.83
2019-01-15T13:11:17.367Z,8.92
2019-01-15T13:12:26.809Z,9.4
2019-01-15T13:13:35.986Z,10.64
2019-01-15T13:14:45.421Z,11.21
2019-01-15T13:15:55.397Z,11.49
2019-01-15T13:17:04.910Z,10.64
2019-01-15T13:18:14.888Z,10.92
2019-01-15T13:19:24.592Z,12.25
2019-01-15T13:20:34.305Z,13.01
2019-01-15T13:21:43.767Z,14.53
2019-01-15T13:22:53.228Z,14.34
2019-01-15T13:24:02.727Z,15.86
2019-01-15T13:25:12.005Z,15.95
2019-01-15T13:26:22.010Z,15.86
2019-01-15T13:27:31.792Z,15.58
2019-01-15T13:28:41.066Z,16.05
2019-01-15T13:29:50.838Z,17.29
2019-01-15T13:31:00.337Z,18.33
2019-01-15T13:32:09.894Z,18.9
2019-01-15T13:33:19.731Z,19.37
2019-01-15T13:34:29.676Z,18.99
2019-01-15T13:35:39.353Z,18.8
2019-01-15T13:36:48.791Z,19.28
2019-01-15T13:37:58.717Z,20.7
2019-01-15T13:39:08.643Z,21.47
2019-01-15T13:40:18.563Z,21.66
2019-01-15T13:41:28.491Z,21.66
2019-01-15T13:42:37.920Z,23.55
2019-01-15T13:43:47.593Z,22.51
2019-01-15T13:44:57.282Z,23.65
2019-01-15T13:46:06.964Z,24.69
2019-01-15T13:47:16.400Z,23.55
2019-01-15T13:48:25.584Z,24.69
2019-01-15T13:49:35.563Z,26.31
2019-01-15T13:50:45.528Z,26.88
2019-01-15T13:51:54.955Z,26.69
2019-01-15T13:53:04.629Z,26.12
2019-01-15T13:54:13.307Z,25.84
2019-01-15T13:55:22.984Z,27.92
2019-01-15T13:56:33.335Z,28.3
2019-01-15T13:57:43.019Z,29.35
2019-01-15T13:58:52.451Z,27.16
2019-01-15T14:00:01.876Z,29.16
2019-01-15T14:01:11.562Z,29.53
2019-01-15T14:02:20.755Z,30.11
2019-01-15T14:03:30.690Z,32.48
2019-01-15T14:04:40.365Z,33.62
2019-01-15T14:05:50.047Z,33.53
2019-01-15T14:07:01.314Z,33.44
2019-01-15T14:08:10.761Z,33.34
2019-01-15T14:09:19.935Z,32.1
2019-01-15T14:10:29.374Z,32.48
2019-01-15T14:11:38.805Z,31.05
2019-01-15T14:12:48.504Z,29.73
2019-01-15T14:13:58.249Z,29.53
2019-01-15T14:15:07.927Z,27.64
2019-01-15T14:16:17.406Z,26.4
2019-01-15T14:17:26.838Z,25.36
2019-01-15T14:18:36.510Z,24.88
2019-01-15T14:19:45.950Z,23.08
2019-01-15T14:20:55.624Z,21.66
2019-01-15T14:22:05.959Z,21.66
2019-01-15T14:23:15.764Z,20.14
2019-01-15T14:24:25.186Z,20.14
2019-01-15T14:25:34.872Z,19.37
2019-01-15T14:26:44.547Z,18.52
2019-01-15T14:27:54.244Z,16.72
2019-01-15T14:29:03.923Z,15.86
2019-01-15T14:30:13.351Z,14.43
2019-01-15T14:31:23.081Z,14.91
2019-01-15T14:32:32.761Z,13.2
2019-01-15T14:33:42.445Z,13.77
2019-01-15T14:34:52.397Z,12.54
2019-01-15T14:36:02.089Z,11.96
2019-01-15T14:37:11.289Z,11.4
2019-01-15T14:38:20.723Z,11.49
2019-01-15T14:39:30.651Z,11.3
2019-01-15T14:40:40.342Z,10.83
2019-01-15T14:41:49.773Z,10.35
2019-01-15T14:42:59.454Z,9.78
2019-01-15T14:44:09.148Z,9.88
2019-01-15T14:45:18.580Z,9.31
2019-01-15T14:46:28.013Z,8.45
2019-01-15T14:47:37.444Z,7.21
2019-01-15T14:48:46.628Z,7.21
2019-01-15T14:49:56.557Z,6.74
2019-01-15T14:51:06.241Z,6.46
2019-01-15T14:52:15.675Z,6.84
2019-01-15T14:53:25.359Z,6.08
2019-01-15T14:54:35.290Z,6.08
2019-01-15T14:55:44.990Z,5.69
2019-01-15T14:56:54.418Z,5.51
2019-01-15T14:58:04.096Z,5.03
2019-01-15T14:59:13.777Z,4.65
2019-01-15T15:00:23.216Z,4.65
2019-01-15T15:01:32.899Z,4.65
2019-01-15T15:02:41.830Z,4.75
2019-01-15T15:03:51.519Z,4.46
2019-01-15T15:05:00.959Z,4.17
2019-01-15T15:06:10.915Z,4.36
2019-01-15T15:07:20.589Z,4.46
2019-01-15T15:08:30.524Z,4.08
2019-01-15T15:09:40.236Z,3.7
2019-01-15T15:10:50.180Z,3.51
2019-01-15T15:12:00.168Z,2.75